Time;durP1;ratioP1;P1;durP2;ratioP2;P2;SDS_P1;SDS_P2;PMS_P1;PMS_P2;Temp;Humidity;BMP_temperature;BMP_pressure;BME280_temperature;BME280_humidity;BME280_pressure;Samples;Min_cycle;Max_cycle;Signal;HPM_P1;HPM_P2
2023/05/06 00:01:32;;;;;;;10.07;7.18;;;12.70;48.10;;;;;;4998817;28;115175;-80
2023/05/06 00:03:59;;;;;;;12.38;7.65;;;12.60;48.30;;;;;;4997331;28;119090;-80
2023/05/06 00:06:27;;;;;;;11.07;7.90;;;12.50;48.40;;;;;;5000281;28;118304;-79
2023/05/06 00:08:55;;;;;;;11.45;7.90;;;12.30;48.60;;;;;;4999425;28;114208;-80
2023/05/06 00:11:22;;;;;;;14.15;8.68;;;12.20;48.90;;;;;;4982717;28;114552;-80
2023/05/06 00:13:49;;;;;;;12.20;8.10;;;12.00;49.10;;;;;;4998117;28;116124;-80
2023/05/06 00:16:16;;;;;;;11.25;7.68;;;12.00;49.30;;;;;;4998659;28;115616;-80
2023/05/06 00:18:44;;;;;;;10.25;7.15;;;11.90;49.40;;;;;;5000611;28;114471;-80
2023/05/06 00:21:11;;;;;;;10.50;6.50;;;11.90;49.40;;;;;;4980962;28;114416;-80
2023/05/06 00:23:38;;;;;;;10.50;7.68;;;11.90;49.50;;;;;;4998338;28;115103;-79
2023/05/06 00:26:08;;;;;;;9.55;6.68;;;11.80;49.70;;;;;;4979111;28;120600;-80
2023/05/06 00:28:39;;;;;;;10.15;6.90;;;11.70;49.70;;;;;;4995930;28;115151;-81
2023/05/06 00:31:06;;;;;;;12.85;7.45;;;11.70;50.00;;;;;;4980773;28;114950;-81
2023/05/06 00:33:33;;;;;;;10.07;6.57;;;11.70;50.00;;;;;;4979354;28;115334;-80
2023/05/06 00:36:00;;;;;;;10.50;7.07;;;11.70;50.00;;;;;;4992030;28;114939;-80
2023/05/06 00:38:27;;;;;;;12.00;7.03;;;11.70;50.10;;;;;;4999058;28;114449;-79
2023/05/06 00:40:55;;;;;;;9.88;7.10;;;11.70;50.00;;;;;;4998865;28;114525;-79
2023/05/06 00:43:22;;;;;;;11.07;7.15;;;11.70;50.10;;;;;;4979510;28;115036;-80
2023/05/06 00:45:49;;;;;;;11.15;7.72;;;11.70;50.10;;;;;;4993633;28;115012;-80
2023/05/06 00:48:16;;;;;;;12.88;7.88;;;11.60;50.10;;;;;;4961634;28;114458;-79
2023/05/06 00:50:43;;;;;;;12.32;8.55;;;11.60;50.30;;;;;;4980126;28;114410;-80
2023/05/06 00:53:13;;;;;;;11.38;8.23;;;11.60;50.30;;;;;;4980720;28;115486;-79
2023/05/06 00:55:40;;;;;;;14.00;9.43;;;11.60;50.50;;;;;;4998323;28;114695;-79
2023/05/06 00:58:07;;;;;;;13.82;10.27;;;11.60;50.50;;;;;;4996285;28;114625;-79
2023/05/06 01:00:37;;;;;;;14.45;10.05;;;11.60;50.40;;;;;;4998603;28;114700;-79
2023/05/06 01:03:08;;;;;;;12.15;10.10;;;11.70;50.40;;;;;;4987618;28;115004;-80
2023/05/06 01:05:44;;;;;;;13.10;10.20;;;11.70;50.40;;;;;;4981003;28;114573;-80
2023/05/06 01:08:16;;;;;;;12.68;9.55;;;11.80;50.50;;;;;;5000256;28;114582;-80
2023/05/06 01:10:59;;;;;;;11.63;9.75;;;11.80;50.40;;;;;;4983923;28;114418;-80
2023/05/06 01:13:47;;;;;;;14.00;9.68;;;11.80;50.40;;;;;;5001003;28;115641;-80
2023/05/06 01:16:16;;;;;;;14.50;9.60;;;11.90;50.00;;;;;;5000254;28;115265;-80
2023/05/06 01:18:44;;;;;;;14.07;9.60;;;11.80;50.30;;;;;;5002147;28;114555;-80
2023/05/06 01:21:11;;;;;;;11.93;9.32;;;11.80;50.40;;;;;;5003538;28;114642;-80
2023/05/06 01:23:56;;;;;;;14.38;9.40;;;11.90;50.40;;;;;;4966085;28;115812;-81
2023/05/06 01:26:24;;;;;;;14.13;9.73;;;12.00;50.40;;;;;;5005927;28;115212;-80
2023/05/06 01:28:52;;;;;;;14.95;9.43;;;11.90;50.50;;;;;;5004448;28;116390;-81
2023/05/06 01:31:24;;;;;;;13.55;9.95;;;11.90;50.70;;;;;;4985439;28;114602;-81
2023/05/06 01:34:01;;;;;;;14.70;9.68;;;11.90;51.00;;;;;;5002116;28;115966;-81
2023/05/06 01:36:52;;;;;;;16.77;11.43;;;11.90;51.30;;;;;;4984784;28;114731;-80
2023/05/06 01:39:23;;;;;;;15.38;11.35;;;11.80;51.10;;;;;;4999273;28;115238;-80
2023/05/06 01:41:52;;;;;;;15.90;11.50;;;11.80;51.30;;;;;;4965252;28;114238;-81
2023/05/06 01:44:21;;;;;;;16.40;11.98;;;11.80;51.40;;;;;;4967334;28;114415;-81
2023/05/06 01:46:48;;;;;;;15.50;11.27;;;11.80;51.60;;;;;;4981071;28;114693;-81
2023/05/06 01:49:16;;;;;;;16.48;12.25;;;11.70;51.90;;;;;;4996583;28;114703;-80
2023/05/06 01:51:47;;;;;;;15.65;12.02;;;11.70;52.00;;;;;;4982075;28;114471;-81
2023/05/06 01:54:14;;;;;;;16.02;11.88;;;11.70;52.20;;;;;;4998233;28;114895;-81
2023/05/06 01:56:41;;;;;;;17.75;13.15;;;11.70;52.20;;;;;;5002674;28;114787;-81
2023/05/06 01:59:08;;;;;;;17.48;12.80;;;11.70;52.20;;;;;;5002222;28;114494;-81
2023/05/06 02:01:35;;;;;;;16.98;11.90;;;11.70;52.20;;;;;;4985418;28;114443;-81
2023/05/06 02:04:03;;;;;;;16.88;11.82;;;11.60;52.40;;;;;;5017684;28;115376;-81
2023/05/06 02:06:31;;;;;;;16.50;11.63;;;11.60;52.60;;;;;;5002320;28;115061;-81
2023/05/06 02:08:58;;;;;;;17.90;12.88;;;11.50;52.70;;;;;;4981628;28;114460;-80
2023/05/06 02:11:26;;;;;;;18.95;13.30;;;11.50;52.90;;;;;;4980986;28;114623;-80
2023/05/06 02:14:00;;;;;;;17.17;13.40;;;11.40;53.00;;;;;;4998883;28;115467;-80
2023/05/06 02:16:31;;;;;;;18.35;13.40;;;11.30;53.10;;;;;;4983037;28;116673;-80
2023/05/06 02:18:59;;;;;;;17.23;12.63;;;11.30;53.40;;;;;;4982069;28;114395;-80
2023/05/06 02:21:27;;;;;;;19.13;12.52;;;11.20;53.40;;;;;;4996737;28;114781;-80
2023/05/06 02:23:54;;;;;;;16.42;12.68;;;11.20;53.40;;;;;;4993679;28;115314;-80
2023/05/06 02:26:21;;;;;;;18.45;12.93;;;11.20;53.40;;;;;;4984004;28;117176;-80
2023/05/06 02:28:48;;;;;;;16.52;13.45;;;11.20;53.60;;;;;;4981227;28;114935;-81
2023/05/06 02:31:15;;;;;;;18.45;13.35;;;11.20;53.70;;;;;;5019217;28;115215;-81
2023/05/06 02:33:46;;;;;;;18.75;13.35;;;11.20;53.90;;;;;;4984087;28;118444;-80
2023/05/06 02:36:16;;;;;;;20.73;13.85;;;11.20;53.90;;;;;;5000921;28;114708;-81
2023/05/06 02:38:43;;;;;;;18.02;14.23;;;11.20;54.00;;;;;;5001629;28;118101;-80
2023/05/06 02:41:10;;;;;;;19.05;13.15;;;11.10;54.10;;;;;;4998218;28;114601;-80
2023/05/06 02:43:37;;;;;;;17.65;13.13;;;11.10;54.30;;;;;;4957397;28;114974;-80
2023/05/06 02:46:04;;;;;;;19.60;14.63;;;11.10;54.50;;;;;;4982087;28;115434;-80
2023/05/06 02:48:31;;;;;;;19.35;13.77;;;11.00;54.60;;;;;;4999059;28;114663;-81
2023/05/06 02:50:58;;;;;;;18.65;13.32;;;10.90;54.80;;;;;;4981010;28;114360;-81
2023/05/06 02:53:25;;;;;;;19.48;13.75;;;10.90;54.90;;;;;;4995912;28;116480;-80
2023/05/06 02:55:53;;;;;;;17.95;12.93;;;10.80;55.00;;;;;;4983535;28;116203;-80
2023/05/06 02:58:21;;;;;;;16.83;12.73;;;10.80;55.00;;;;;;5002497;28;114528;-80
2023/05/06 03:00:48;;;;;;;17.52;13.77;;;10.80;55.10;;;;;;4994034;28;114671;-80
2023/05/06 03:03:16;;;;;;;16.60;13.13;;;10.80;55.20;;;;;;4997662;28;114922;-80
2023/05/06 03:05:43;;;;;;;20.77;12.93;;;10.80;55.30;;;;;;4998024;28;115280;-80
2023/05/06 03:08:10;;;;;;;17.00;11.90;;;10.70;55.30;;;;;;4998082;28;114594;-81
2023/05/06 03:10:38;;;;;;;15.60;11.00;;;10.70;55.30;;;;;;4983083;28;116840;-79
2023/05/06 03:13:05;;;;;;;19.88;11.38;;;10.70;55.40;;;;;;5000450;28;115361;-79
2023/05/06 03:15:33;;;;;;;17.35;11.48;;;10.70;55.50;;;;;;5017135;28;115130;-80
2023/05/06 03:18:00;;;;;;;15.70;11.77;;;10.80;55.60;;;;;;5001726;28;114512;-79
2023/05/06 03:20:28;;;;;;;17.02;11.82;;;10.80;55.60;;;;;;5017660;28;114657;-80
2023/05/06 03:22:57;;;;;;;17.60;12.05;;;10.80;55.60;;;;;;5000211;28;114893;-80
2023/05/06 03:25:25;;;;;;;17.17;11.40;;;10.80;55.70;;;;;;5017030;28;114617;-80
2023/05/06 03:27:53;;;;;;;18.15;11.82;;;10.80;55.70;;;;;;4984286;28;114481;-79
2023/05/06 03:30:22;;;;;;;15.48;11.27;;;10.80;55.70;;;;;;4999720;28;114790;-80
2023/05/06 03:32:54;;;;;;;17.75;12.35;;;10.80;55.90;;;;;;4980751;28;114845;-79
2023/05/06 03:35:29;;;;;;;18.33;11.52;;;10.80;56.20;;;;;;5000454;28;114739;-79
2023/05/06 03:38:01;;;;;;;18.33;10.85;;;10.80;56.30;;;;;;4994360;28;114355;-79
2023/05/06 03:40:41;;;;;;;16.88;11.65;;;10.70;56.40;;;;;;5014172;28;114159;-80
2023/05/06 03:43:08;;;;;;;23.00;12.43;;;10.70;56.60;;;;;;4963317;28;116452;-80
2023/05/06 03:45:36;;;;;;;17.73;11.63;;;10.70;56.50;;;;;;4994061;28;114716;-79
2023/05/06 03:48:05;;;;;;;16.80;10.63;;;10.60;56.70;;;;;;5000399;28;114498;-79
2023/05/06 03:50:35;;;;;;;17.75;11.80;;;10.70;56.80;;;;;;5000941;28;114533;-79
2023/05/06 03:53:05;;;;;;;14.57;10.45;;;10.60;57.00;;;;;;4979366;28;114883;-80
2023/05/06 03:55:33;;;;;;;13.20;10.13;;;10.60;56.90;;;;;;4996248;28;114451;-80
2023/05/06 03:58:01;;;;;;;17.10;10.10;;;10.60;56.80;;;;;;4995969;28;118752;-80
2023/05/06 04:00:29;;;;;;;15.32;10.10;;;10.60;56.80;;;;;;4988008;28;116183;-80
2023/05/06 04:02:57;;;;;;;16.00;11.20;;;10.70;56.80;;;;;;4999655;28;117374;-79
2023/05/06 04:05:31;;;;;;;14.65;10.40;;;10.60;56.70;;;;;;4976407;28;116807;-79
2023/05/06 04:07:58;;;;;;;16.13;10.55;;;10.60;56.70;;;;;;4983854;28;114423;-79
2023/05/06 04:10:26;;;;;;;14.40;9.77;;;10.70;56.80;;;;;;5016387;28;114598;-79
2023/05/06 04:12:59;;;;;;;13.98;10.45;;;10.70;56.90;;;;;;4999154;28;115120;-79
2023/05/06 04:15:35;;;;;;;14.70;10.88;;;10.80;56.70;;;;;;4999597;28;114616;-80
2023/05/06 04:18:07;;;;;;;17.15;10.82;;;10.90;56.80;;;;;;4980578;28;114516;-80
2023/05/06 04:20:37;;;;;;;15.98;11.88;;;11.10;56.70;;;;;;4996241;28;114605;-80
2023/05/06 04:23:04;;;;;;;17.80;11.48;;;11.20;56.50;;;;;;4994325;28;114989;-81
2023/05/06 04:25:34;;;;;;;18.15;11.82;;;11.30;56.30;;;;;;4980398;28;114706;-80
2023/05/06 04:28:03;;;;;;;16.30;11.13;;;11.50;56.30;;;;;;4964611;28;115446;-81
2023/05/06 04:30:30;;;;;;;17.92;12.40;;;11.70;56.20;;;;;;4978151;28;115148;-82
2023/05/06 04:33:01;;;;;;;16.92;11.90;;;12.00;55.70;;;;;;5015344;28;115043;-81
2023/05/06 04:35:29;;;;;;;17.60;12.23;;;12.30;55.30;;;;;;4998261;28;114530;-81
2023/05/06 04:37:57;;;;;;;17.83;11.82;;;12.60;54.50;;;;;;4999346;28;114783;-81
2023/05/06 04:40:29;;;;;;;19.63;12.20;;;12.80;53.80;;;;;;4971904;28;115533;-81
2023/05/06 04:42:57;;;;;;;19.08;11.93;;;13.00;53.20;;;;;;4981886;28;116716;-81
2023/05/06 04:45:28;;;;;;;14.57;10.40;;;13.20;52.60;;;;;;4981737;28;114713;-81
2023/05/06 04:47:56;;;;;;;15.20;10.80;;;13.20;51.80;;;;;;5000239;28;115616;-81
2023/05/06 04:50:24;;;;;;;15.77;11.80;;;13.10;51.70;;;;;;4984454;28;114567;-81
2023/05/06 04:52:52;;;;;;;18.33;13.45;;;13.10;51.60;;;;;;4981699;28;114871;-80
2023/05/06 04:55:20;;;;;;;15.60;11.10;;;13.00;51.70;;;;;;4989129;28;115569;-81
2023/05/06 04:57:50;;;;;;;15.02;10.68;;;13.00;51.80;;;;;;4985242;28;114588;-80
2023/05/06 05:00:18;;;;;;;15.85;11.23;;;13.00;51.60;;;;;;4982707;28;114674;-80
2023/05/06 05:02:45;;;;;;;16.80;10.38;;;13.10;51.70;;;;;;4982086;28;114816;-80
2023/05/06 05:05:15;;;;;;;15.05;10.63;;;13.10;51.60;;;;;;4993432;28;114500;-81
2023/05/06 05:07:45;;;;;;;16.27;11.13;;;13.10;51.60;;;;;;5005990;28;114499;-81
2023/05/06 05:10:13;;;;;;;19.27;11.13;;;13.10;51.70;;;;;;4997489;28;114452;-81
2023/05/06 05:12:40;;;;;;;17.70;11.48;;;13.10;51.70;;;;;;4990356;28;114961;-81
2023/05/06 05:15:08;;;;;;;17.58;12.38;;;13.20;51.80;;;;;;4999402;28;114522;-81
2023/05/06 05:17:36;;;;;;;19.83;13.50;;;13.20;51.90;;;;;;4975184;28;114673;-81
2023/05/06 05:20:06;;;;;;;18.15;11.20;;;13.20;51.90;;;;;;4994360;28;115119;-81
2023/05/06 05:22:33;;;;;;;16.55;11.50;;;13.20;52.00;;;;;;4959736;28;117026;-81
2023/05/06 05:25:00;;;;;;;18.33;12.00;;;13.30;52.40;;;;;;4993308;28;114707;-81
2023/05/06 05:27:28;;;;;;;16.52;11.77;;;13.30;52.20;;;;;;5006248;28;115475;-81
2023/05/06 05:29:58;;;;;;;21.92;12.27;;;13.40;52.10;;;;;;4982017;28;114726;-81
2023/05/06 05:32:26;;;;;;;17.45;12.32;;;13.50;52.00;;;;;;5010108;28;118529;-80
2023/05/06 05:34:53;;;;;;;18.67;12.57;;;13.50;52.10;;;;;;4977314;28;114684;-80
2023/05/06 05:37:21;;;;;;;17.67;11.80;;;13.50;52.50;;;;;;4992354;28;114306;-81
2023/05/06 05:39:48;;;;;;;21.58;12.15;;;13.60;52.60;;;;;;4996390;28;114524;-80
2023/05/06 05:42:16;;;;;;;18.23;11.65;;;13.70;52.50;;;;;;4987966;28;116495;-80
2023/05/06 05:44:45;;;;;;;15.85;11.82;;;13.70;52.70;;;;;;4999127;28;115055;-80
2023/05/06 05:47:13;;;;;;;18.77;12.02;;;13.70;52.70;;;;;;5017500;28;114427;-81
2023/05/06 05:49:40;;;;;;;16.55;11.57;;;13.80;52.90;;;;;;4985371;28;114776;-78
2023/05/06 05:52:09;;;;;;;16.02;11.70;;;13.90;53.00;;;;;;4980980;28;114978;-80
2023/05/06 05:54:36;;;;;;;16.42;11.63;;;14.10;52.90;;;;;;4995027;28;114617;-79
2023/05/06 05:57:04;;;;;;;16.58;12.40;;;14.20;52.80;;;;;;4996379;28;114563;-80
2023/05/06 05:59:32;;;;;;;20.00;12.95;;;14.40;52.40;;;;;;5002373;28;114585;-82
2023/05/06 06:02:03;;;;;;;22.70;14.13;;;14.50;52.20;;;;;;4997266;28;115199;-80
2023/05/06 06:04:31;;;;;;;18.02;13.38;;;14.60;52.10;;;;;;4982275;28;114678;-80
2023/05/06 06:07:00;;;;;;;20.17;13.63;;;14.80;51.70;;;;;;4981472;28;114482;-81
2023/05/06 06:09:31;;;;;;;24.63;14.02;;;14.80;51.60;;;;;;4998690;28;114340;-79
2023/05/06 06:12:00;;;;;;;19.55;13.35;;;14.90;51.50;;;;;;4983645;28;119833;-80
2023/05/06 06:14:30;;;;;;;21.65;12.98;;;15.00;51.70;;;;;;5012615;28;114725;-80
2023/05/06 06:16:58;;;;;;;19.75;13.10;;;15.00;51.70;;;;;;4999373;28;114362;-81
2023/05/06 06:19:25;;;;;;;17.63;12.02;;;15.10;51.90;;;;;;4983322;28;117039;-80
2023/05/06 06:21:53;;;;;;;19.08;12.05;;;15.20;51.80;;;;;;4994499;28;114973;-80
2023/05/06 06:24:21;;;;;;;28.05;19.77;;;15.20;51.80;;;;;;4983698;28;117529;-81
2023/05/06 06:26:49;;;;;;;21.50;13.88;;;15.30;51.80;;;;;;4995354;28;114534;-81
2023/05/06 06:29:16;;;;;;;15.73;11.15;;;15.40;51.70;;;;;;4983581;28;114381;-80
2023/05/06 06:31:43;;;;;;;16.80;10.93;;;15.50;51.60;;;;;;4981367;28;116236;-81
2023/05/06 06:34:11;;;;;;;10.13;6.53;;;15.60;51.40;;;;;;4980543;28;115004;-80
2023/05/06 06:36:43;;;;;;;13.38;7.65;;;15.70;50.20;;;;;;4982773;28;115345;-81
2023/05/06 06:39:11;;;;;;;14.07;6.88;;;15.80;50.20;;;;;;4984585;28;114312;-80
2023/05/06 06:41:38;;;;;;;9.45;6.07;;;15.90;49.60;;;;;;4998888;28;115445;-80
2023/05/06 06:44:05;;;;;;;7.72;5.40;;;16.10;49.20;;;;;;4993406;28;116529;-81
2023/05/06 06:46:33;;;;;;;10.98;5.18;;;16.20;48.70;;;;;;4999278;28;114561;-80
2023/05/06 06:49:04;;;;;;;6.28;4.80;;;16.30;47.60;;;;;;5000106;28;114577;-80
2023/05/06 06:51:31;;;;;;;8.98;5.00;;;16.30;47.40;;;;;;4983475;28;114924;-81
2023/05/06 06:53:58;;;;;;;9.20;4.72;;;16.20;47.30;;;;;;4984180;28;117385;-81
2023/05/06 06:56:26;;;;;;;7.28;4.63;;;16.20;47.90;;;;;;4986328;28;114820;-81
2023/05/06 06:58:53;;;;;;;7.82;4.75;;;16.30;47.70;;;;;;4985323;28;114637;-82
2023/05/06 07:01:20;;;;;;;5.50;4.35;;;16.30;47.60;;;;;;4998004;28;114948;-82
2023/05/06 07:03:48;;;;;;;7.00;4.47;;;16.30;47.50;;;;;;5000225;28;114623;-81
2023/05/06 07:06:15;;;;;;;9.75;4.53;;;16.40;47.40;;;;;;4990684;28;114419;-80
2023/05/06 07:08:45;;;;;;;7.40;4.43;;;16.50;47.50;;;;;;5001017;28;114662;-80
2023/05/06 07:11:15;;;;;;;8.77;4.97;;;16.50;47.40;;;;;;4995354;28;114942;-81
2023/05/06 07:13:54;;;;;;;5.53;4.50;;;16.60;47.40;;;;;;4985815;28;116354;-80
2023/05/06 07:21:25;;;;;;;8.05;4.38;;;17.10;46.90;;;;;;4890957;28;114979;-81
2023/05/06 07:25:20;;;;;;;7.15;4.25;;;17.30;46.30;;;;;;4895071;28;117519;-82
2023/05/06 07:28:25;;;;;;;8.07;4.60;;;17.50;45.90;;;;;;4849704;28;118048;-80
2023/05/06 07:30:56;;;;;;;7.45;5.20;;;17.60;45.80;;;;;;4869516;28;114338;-80
2023/05/06 07:33:23;;;;;;;8.25;5.22;;;17.80;45.60;;;;;;4870417;28;114627;-82
2023/05/06 07:35:55;;;;;;;5.57;4.30;;;18.10;44.80;;;;;;4860033;28;115407;-81
2023/05/06 07:38:22;;;;;;;7.53;4.93;;;18.20;44.30;;;;;;4875281;28;114630;-82
2023/05/06 07:40:52;;;;;;;8.70;4.88;;;18.20;44.30;;;;;;4921929;28;114580;-82
2023/05/06 07:43:25;;;;;;;6.47;4.70;;;18.20;44.60;;;;;;4907214;28;114407;-81
2023/05/06 07:46:01;;;;;;;8.50;5.00;;;18.30;44.50;;;;;;4890433;28;114517;-80
2023/05/06 07:48:36;;;;;;;7.78;4.60;;;18.40;44.50;;;;;;4909932;28;115556;-80
2023/05/06 07:51:04;;;;;;;7.03;4.90;;;18.50;44.20;;;;;;4888063;28;114622;-80
2023/05/06 07:53:39;;;;;;;6.30;4.50;;;18.50;44.10;;;;;;4915278;28;114657;-80
2023/05/06 07:56:07;;;;;;;8.18;4.88;;;18.30;44.30;;;;;;4901600;28;117635;-81
2023/05/06 07:58:35;;;;;;;6.35;4.43;;;18.10;44.80;;;;;;4914620;28;114869;-81
2023/05/06 08:01:09;;;;;;;7.18;5.18;;;18.00;45.10;;;;;;4919796;28;114381;-80
2023/05/06 08:03:36;;;;;;;8.13;5.15;;;18.00;45.10;;;;;;4922470;28;114739;-81
2023/05/06 08:06:07;;;;;;;7.30;4.80;;;18.00;45.40;;;;;;4902351;28;117843;-81
2023/05/06 08:08:36;;;;;;;7.60;5.53;;;18.00;45.40;;;;;;4901086;28;116449;-81
2023/05/06 08:11:04;;;;;;;7.38;4.90;;;18.00;45.40;;;;;;4975667;28;115336;-81
2023/05/06 08:13:32;;;;;;;7.05;5.18;;;17.90;45.70;;;;;;4990241;28;114357;-81
2023/05/06 08:16:01;;;;;;;8.27;4.90;;;18.00;45.90;;;;;;4982609;28;116274;-81
2023/05/06 08:19:04;;;;;;;7.20;4.82;;;18.00;45.60;;;;;;4966744;28;115082;-82
2023/05/06 08:21:35;;;;;;;8.80;5.53;;;18.00;45.60;;;;;;4995218;28;114434;-81
2023/05/06 08:24:02;;;;;;;7.00;4.95;;;17.80;45.90;;;;;;4993863;28;115936;-80
2023/05/06 08:26:50;;;;;;;10.18;4.82;;;17.80;46.00;;;;;;4992690;28;114908;-80
2023/05/06 08:29:20;;;;;;;7.82;5.10;;;17.80;46.30;;;;;;4994227;28;115751;-80
2023/05/06 08:31:47;;;;;;;9.60;5.50;;;17.70;46.40;;;;;;4989338;28;114216;-81
2023/05/06 08:34:22;;;;;;;6.97;4.75;;;17.60;46.60;;;;;;5006672;28;114365;-80
2023/05/06 08:36:50;;;;;;;8.20;5.72;;;17.60;46.70;;;;;;4987446;28;114424;-79
2023/05/06 08:39:46;;;;;;;8.82;5.70;;;17.50;46.80;;;;;;4987751;28;114760;-80
2023/05/06 08:42:14;;;;;;;9.32;5.32;;;17.60;46.60;;;;;;5002862;28;114715;-80
2023/05/06 08:44:43;;;;;;;8.20;5.85;;;17.60;47.10;;;;;;5007384;28;114603;-82
2023/05/06 08:47:14;;;;;;;14.45;5.82;;;17.60;47.20;;;;;;5003730;28;114978;-81
2023/05/06 08:49:41;;;;;;;7.53;5.55;;;17.60;47.30;;;;;;5003553;28;117225;-80
2023/05/06 08:52:13;;;;;;;16.80;5.75;;;17.70;47.40;;;;;;5007825;28;114361;-80
2023/05/06 08:54:53;;;;;;;11.32;6.47;;;17.60;48.40;;;;;;5002185;28;114543;-80
2023/05/06 08:57:23;;;;;;;8.70;5.38;;;17.50;50.30;;;;;;5004721;28;116105;-80
2023/05/06 08:59:54;;;;;;;8.70;5.60;;;17.30;51.20;;;;;;4986256;28;114585;-80
2023/05/06 09:02:26;;;;;;;6.90;5.30;;;17.30;51.70;;;;;;5004152;28;114496;-80
2023/05/06 09:04:55;;;;;;;8.05;5.45;;;17.20;52.90;;;;;;4989834;28;114453;-80
2023/05/06 09:07:29;;;;;;;6.85;6.07;;;17.10;53.30;;;;;;4986436;28;114885;-80
2023/05/06 09:09:57;;;;;;;9.43;6.57;;;17.00;53.60;;;;;;4990203;28;114773;-81
2023/05/06 09:12:38;;;;;;;9.18;6.82;;;17.00;54.20;;;;;;4988232;28;114598;-79
2023/05/06 09:15:25;;;;;;;8.68;6.70;;;16.90;54.40;;;;;;5004754;28;114476;-79
2023/05/06 09:18:20;;;;;;;10.23;6.82;;;16.80;54.40;;;;;;4963954;28;115585;-80
2023/05/06 09:21:01;;;;;;;11.45;7.78;;;16.80;55.20;;;;;;4966833;28;114783;-80
2023/05/06 09:23:31;;;;;;;10.13;7.65;;;16.70;56.00;;;;;;4987199;28;114330;-80
2023/05/06 09:26:00;;;;;;;9.00;7.95;;;16.70;56.60;;;;;;4979220;28;114621;-79
2023/05/06 09:28:32;;;;;;;10.05;8.07;;;16.70;57.40;;;;;;4979934;28;115819;-79
2023/05/06 09:31:08;;;;;;;9.32;8.05;;;16.60;58.40;;;;;;4974439;28;115999;-80
2023/05/06 09:33:36;;;;;;;10.15;8.13;;;16.60;58.80;;;;;;4984105;28;114447;-79
2023/05/06 09:36:40;;;;;;;9.93;8.25;;;16.50;59.30;;;;;;4964949;28;114720;-79
2023/05/06 09:39:11;;;;;;;10.15;8.70;;;16.50;58.70;;;;;;4973017;28;115685;-80
2023/05/06 09:41:38;;;;;;;9.13;8.13;;;16.40;59.40;;;;;;4965565;28;115462;-80
2023/05/06 09:44:06;;;;;;;10.48;9.38;;;16.30;59.70;;;;;;4968771;28;114592;-80
2023/05/06 09:46:33;;;;;;;10.88;9.30;;;16.30;60.30;;;;;;4953015;28;114375;-80
2023/05/06 09:49:00;;;;;;;12.65;10.27;;;16.30;60.60;;;;;;4958326;28;118575;-80
2023/05/06 09:51:27;;;;;;;12.25;10.60;;;16.20;61.20;;;;;;4988600;28;117480;-80
2023/05/06 09:53:55;;;;;;;13.15;11.18;;;16.20;61.80;;;;;;4982008;28;114472;-79
2023/05/06 09:56:22;;;;;;;19.35;15.13;;;16.10;61.90;;;;;;4982569;28;114380;-80
2023/05/06 09:58:50;;;;;;;19.45;16.73;;;16.10;62.60;;;;;;4990389;28;115053;-80
2023/05/06 10:01:17;;;;;;;25.75;17.08;;;16.00;62.50;;;;;;4985102;28;114647;-80
2023/05/06 10:04:07;;;;;;;20.55;16.23;;;15.90;62.40;;;;;;4984506;28;114424;-79
2023/05/06 10:06:35;;;;;;;21.00;16.75;;;15.80;62.60;;;;;;4983473;28;115354;-80
2023/05/06 10:09:02;;;;;;;20.88;15.52;;;15.80;62.60;;;;;;4984417;28;115213;-80
2023/05/06 10:11:30;;;;;;;20.88;15.95;;;15.70;62.90;;;;;;4984270;28;114666;-80
2023/05/06 10:13:59;;;;;;;21.13;16.90;;;15.70;63.00;;;;;;5001226;28;114311;-79
2023/05/06 10:16:27;;;;;;;21.60;16.98;;;15.70;63.30;;;;;;4982560;28;114486;-80
2023/05/06 10:18:54;;;;;;;20.40;17.95;;;15.70;63.40;;;;;;4994842;28;114982;-80
2023/05/06 10:21:26;;;;;;;20.25;17.15;;;15.70;63.80;;;;;;4974915;28;115998;-81
2023/05/06 10:24:00;;;;;;;19.88;17.27;;;15.70;64.20;;;;;;4994694;28;114365;-80
2023/05/06 10:26:27;;;;;;;19.38;16.60;;;15.60;64.70;;;;;;5002515;28;114354;-79
2023/05/06 10:28:55;;;;;;;22.13;17.88;;;15.50;64.80;;;;;;4982349;28;114832;-80
2023/05/06 10:31:22;;;;;;;22.38;17.65;;;15.50;65.50;;;;;;4983379;28;114660;-80
2023/05/06 10:33:50;;;;;;;21.67;18.45;;;15.40;65.50;;;;;;4994793;28;115236;-80
2023/05/06 10:36:26;;;;;;;20.13;17.85;;;15.40;65.40;;;;;;5000768;28;114605;-80
2023/05/06 10:38:55;;;;;;;22.17;18.80;;;15.30;65.90;;;;;;4998624;28;116273;-79
2023/05/06 10:41:24;;;;;;;25.52;19.42;;;15.20;66.20;;;;;;4998141;28;114703;-80
2023/05/06 10:43:55;;;;;;;24.88;17.73;;;15.20;66.10;;;;;;4969341;28;114486;-79
2023/05/06 10:46:25;;;;;;;21.80;19.42;;;15.10;66.20;;;;;;4984610;28;114277;-80
2023/05/06 10:49:10;;;;;;;22.50;18.98;;;15.00;66.70;;;;;;4984575;28;114816;-79
2023/05/06 10:51:42;;;;;;;22.08;19.38;;;15.00;66.90;;;;;;4981301;28;114618;-79
2023/05/06 10:54:20;;;;;;;23.65;19.35;;;14.90;67.10;;;;;;4998269;28;114768;-79
2023/05/06 10:56:47;;;;;;;24.90;20.08;;;15.00;67.40;;;;;;4990771;28;114528;-80
2023/05/06 10:59:15;;;;;;;22.98;20.55;;;15.00;67.50;;;;;;4983645;28;118743;-79
2023/05/06 11:01:43;;;;;;;26.35;22.33;;;15.00;67.50;;;;;;4998036;28;114827;-80
2023/05/06 11:04:14;;;;;;;23.95;21.23;;;15.00;67.50;;;;;;4980939;28;116539;-79
2023/05/06 11:06:48;;;;;;;21.27;18.52;;;15.00;67.50;;;;;;4983627;28;114754;-80
2023/05/06 11:09:22;;;;;;;25.20;19.45;;;15.00;67.40;;;;;;4982917;28;114947;-80
2023/05/06 11:11:53;;;;;;;22.30;19.95;;;15.00;67.20;;;;;;5001130;28;115056;-80
2023/05/06 11:14:29;;;;;;;23.02;20.52;;;15.00;67.50;;;;;;5002751;28;114400;-80
2023/05/06 11:16:57;;;;;;;22.58;19.85;;;15.00;67.60;;;;;;5018268;28;114575;-81
2023/05/06 11:19:29;;;;;;;23.83;20.00;;;14.90;67.50;;;;;;4982916;28;116115;-82
2023/05/06 11:21:59;;;;;;;25.70;21.58;;;15.00;67.60;;;;;;5011828;28;114730;-81
2023/05/06 11:24:27;;;;;;;23.20;20.65;;;14.90;67.70;;;;;;4982898;28;114508;-80
2023/05/06 11:26:55;;;;;;;24.33;21.35;;;14.80;67.90;;;;;;4995521;28;118418;-81
2023/05/06 11:29:23;;;;;;;27.05;22.05;;;14.80;68.00;;;;;;4983010;28;116588;-79
2023/05/06 11:31:53;;;;;;;25.60;22.52;;;14.80;68.30;;;;;;4985273;28;116087;-80
2023/05/06 11:34:30;;;;;;;22.58;20.17;;;14.90;68.50;;;;;;5002302;28;114599;-79
2023/05/06 11:36:59;;;;;;;21.88;18.88;;;14.90;68.20;;;;;;5000844;28;114212;-79
2023/05/06 11:39:31;;;;;;;23.08;19.65;;;14.90;68.20;;;;;;4983965;28;119078;-79
2023/05/06 11:42:06;;;;;;;20.15;16.95;;;14.90;68.30;;;;;;4992255;28;114930;-80
2023/05/06 11:44:36;;;;;;;18.50;15.40;;;14.90;68.30;;;;;;4989913;28;114588;-80
2023/05/06 11:47:06;;;;;;;17.60;15.43;;;14.90;68.20;;;;;;4997769;28;114390;-79
2023/05/06 11:49:38;;;;;;;21.75;19.30;;;14.90;68.60;;;;;;4993596;28;115050;-79
2023/05/06 11:52:07;;;;;;;21.58;18.10;;;14.90;68.70;;;;;;4998808;28;114873;-81
2023/05/06 11:54:35;;;;;;;23.30;19.02;;;14.90;68.50;;;;;;4986712;28;115288;-81
2023/05/06 11:57:02;;;;;;;22.08;18.60;;;14.80;68.60;;;;;;5000210;28;114435;-80
2023/05/06 11:59:31;;;;;;;20.75;17.70;;;14.90;68.30;;;;;;4976444;28;114977;-80
2023/05/06 12:02:02;;;;;;;21.95;19.60;;;14.80;68.50;;;;;;4990076;28;116799;-80
2023/05/06 12:04:46;;;;;;;19.70;16.77;;;14.90;68.70;;;;;;4996950;28;114515;-80
2023/05/06 12:07:14;;;;;;;16.15;14.55;;;15.00;68.70;;;;;;4999379;28;116102;-81
2023/05/06 12:09:44;;;;;;;15.55;13.05;;;15.00;68.90;;;;;;4999512;28;115323;-78
2023/05/06 12:12:13;;;;;;;13.48;10.60;;;15.20;69.00;;;;;;4976394;28;115270;-79
2023/05/06 12:14:41;;;;;;;11.60;10.40;;;15.40;68.70;;;;;;4973745;28;114804;-79
2023/05/06 12:17:08;;;;;;;11.43;10.13;;;15.70;68.70;;;;;;4980377;28;114426;-79
2023/05/06 12:19:35;;;;;;;11.20;9.43;;;15.90;68.60;;;;;;4993750;28;114922;-79
2023/05/06 12:22:23;;;;;;;10.05;8.63;;;16.20;67.50;;;;;;4989581;28;114675;-79
2023/05/06 12:24:50;;;;;;;10.40;8.98;;;16.50;66.70;;;;;;4992326;28;114570;-79
2023/05/06 12:27:33;;;;;;;13.23;9.25;;;16.60;66.20;;;;;;4981218;28;114605;-79
2023/05/06 12:30:03;;;;;;;11.30;9.25;;;16.80;64.90;;;;;;4991823;28;118378;-80
2023/05/06 12:32:31;;;;;;;11.60;9.30;;;16.80;64.40;;;;;;4979503;28;115786;-79
2023/05/06 12:35:04;;;;;;;11.25;8.93;;;16.80;63.50;;;;;;4994008;28;114387;-79
2023/05/06 12:37:33;;;;;;;;;;;16.80;63.30;;;;;;4993326;28;117688;-79
2023/05/06 12:40:00;;;;;;;11.90;10.10;;;16.80;63.10;;;;;;4995486;28;114893;-81
2023/05/06 12:42:30;;;;;;;10.15;8.85;;;16.70;63.20;;;;;;4981221;28;115105;-79
2023/05/06 12:45:14;;;;;;;9.75;8.77;;;16.80;63.20;;;;;;4988746;28;114451;-81